createdAt,value
2018-10-18T07:48:15.137Z,27.27
2018-10-18T07:50:44.416Z,24.63
2018-10-18T07:53:13.771Z,24.97
2018-10-18T07:55:42.995Z,23.73
2018-10-18T07:58:12.143Z,25.57
2018-10-18T08:00:41.577Z,26.50
2018-10-18T08:03:10.946Z,23.63
2018-10-18T08:05:40.564Z,23.13
2018-10-18T08:08:10.451Z,22.23
2018-10-18T08:10:40.072Z,21.37
2018-10-18T08:13:09.534Z,21.43
2018-10-18T08:15:38.513Z,17.10
2018-10-18T08:18:07.614Z,18.10
2018-10-18T08:20:36.705Z,16.80
2018-10-18T08:23:06.198Z,16.90
2018-10-18T08:25:35.332Z,18.17
2018-10-18T08:28:04.618Z,16.97
2018-10-18T08:30:33.799Z,16.23
2018-10-18T08:33:03.129Z,14.97
2018-10-18T08:35:33.275Z,16.10
2018-10-18T08:38:02.799Z,14.80
2018-10-18T08:40:33.322Z,14.53
2018-10-18T08:43:02.455Z,16.50
2018-10-18T08:45:31.513Z,13.83
2018-10-18T08:48:00.817Z,14.63
2018-10-18T08:50:29.941Z,14.10
2018-10-18T08:52:59.046Z,13.13
2018-10-18T08:55:28.290Z,16.60
2018-10-18T08:57:57.638Z,14.47
2018-10-18T09:00:26.998Z,14.73
2018-10-18T09:02:57.172Z,12.50
2018-10-18T09:05:26.962Z,13.83
2018-10-18T09:07:56.266Z,13.07
2018-10-18T09:10:25.666Z,13.93
2018-10-18T09:12:54.759Z,12.07
2018-10-18T09:15:23.906Z,14.00
2018-10-18T09:17:53.051Z,12.57
2018-10-18T09:20:22.229Z,14.03
2018-10-18T09:22:51.398Z,12.67
2018-10-18T09:25:20.677Z,14.40
2018-10-18T09:27:50.259Z,12.83
2018-10-18T09:30:19.875Z,11.13
2018-10-18T09:32:50.252Z,13.20
2018-10-18T09:35:19.455Z,13.97
2018-10-18T09:37:48.543Z,12.60
2018-10-18T09:40:17.650Z,10.77
2018-10-18T09:42:46.887Z,10.83
2018-10-18T09:45:16.015Z,12.50
2018-10-18T09:47:45.131Z,11.77
2018-10-18T09:50:14.304Z,9.43
2018-10-18T09:52:43.625Z,11.20
2018-10-18T09:55:14.089Z,11.97
2018-10-18T09:57:44.663Z,11.20
2018-10-18T10:00:19.170Z,10.63
2018-10-18T10:02:54.462Z,9.90
2018-10-18T10:05:24.403Z,10.73
2018-10-18T10:07:53.935Z,11.57
2018-10-18T10:10:23.047Z,12.93
2018-10-18T10:12:52.227Z,11.10
2018-10-18T10:15:21.345Z,10.23
2018-10-18T10:17:50.574Z,10.03
2018-10-18T10:20:19.609Z,11.33
2018-10-18T10:22:48.690Z,12.17
2018-10-18T10:25:18.118Z,10.47
2018-10-18T10:27:47.140Z,11.63
2018-10-18T10:30:16.904Z,11.43
2018-10-18T10:32:46.877Z,9.23
2018-10-18T10:35:17.085Z,9.40
2018-10-18T10:37:46.415Z,9.47
2018-10-18T10:40:15.700Z,9.00
2018-10-18T10:42:44.974Z,9.53
2018-10-18T10:45:14.140Z,9.47
2018-10-18T10:47:43.119Z,9.70
2018-10-18T10:50:12.523Z,8.70
2018-10-18T10:52:41.528Z,9.60
2018-10-18T10:55:11.782Z,10.33
2018-10-18T10:57:44.134Z,10.73
2018-10-18T11:00:14.712Z,9.60
2018-10-18T11:02:44.326Z,9.60
2018-10-18T11:05:14.084Z,9.43
2018-10-18T11:07:43.871Z,10.80
2018-10-18T11:10:13.404Z,11.97
2018-10-18T11:12:42.843Z,10.40
2018-10-18T11:15:11.986Z,11.10
2018-10-18T11:17:41.090Z,9.63
2018-10-18T11:20:10.281Z,11.93
2018-10-18T11:22:39.346Z,9.73
2018-10-18T11:25:08.498Z,9.80
2018-10-18T11:27:37.745Z,10.53
2018-10-18T11:30:07.194Z,9.67
2018-10-18T11:32:36.582Z,10.40
2018-10-18T11:35:06.502Z,8.77
2018-10-18T11:37:36.461Z,8.83
2018-10-18T11:40:06.290Z,9.80
2018-10-18T11:42:35.398Z,8.07
2018-10-18T11:45:04.558Z,8.40
2018-10-18T11:47:33.667Z,7.33
2018-10-18T11:50:02.760Z,8.50
2018-10-18T11:52:31.854Z,8.47
2018-10-18T11:55:01.571Z,8.40
2018-10-18T11:57:30.890Z,6.80
2018-10-18T12:00:01.079Z,6.43
2018-10-18T12:02:31.079Z,6.60
2018-10-18T12:05:00.311Z,6.17
2018-10-18T12:07:29.478Z,5.97
2018-10-18T12:09:58.628Z,7.73
2018-10-18T12:12:27.725Z,7.53
2018-10-18T12:14:56.802Z,7.77
2018-10-18T12:17:25.983Z,9.33
2018-10-18T12:19:55.492Z,8.03
2018-10-18T12:22:26.007Z,6.43
2018-10-18T12:24:55.882Z,5.40
2018-10-18T12:27:25.449Z,5.83
2018-10-18T12:29:54.678Z,6.47
2018-10-18T12:32:23.939Z,6.27
2018-10-18T12:34:53.171Z,7.97
2018-10-18T12:37:22.303Z,7.50
2018-10-18T12:39:51.327Z,7.37
2018-10-18T12:42:20.913Z,6.23
2018-10-18T12:44:50.370Z,6.80
2018-10-18T12:47:19.995Z,6.43
2018-10-18T12:49:50.039Z,5.10
2018-10-18T12:52:19.469Z,5.63
2018-10-18T12:54:48.587Z,4.70
2018-10-18T12:57:17.701Z,3.80
2018-10-18T12:59:46.882Z,5.43
2018-10-18T13:02:16.133Z,5.73
2018-10-18T13:04:45.235Z,5.57
2018-10-18T13:07:14.451Z,5.17
2018-10-18T13:09:43.735Z,7.50
2018-10-18T13:12:13.670Z,8.20
2018-10-18T13:14:43.275Z,7.10
2018-10-18T13:17:13.137Z,9.00
2018-10-18T13:19:42.606Z,7.60
2018-10-18T13:22:11.707Z,7.33
2018-10-18T13:24:40.978Z,7.10
2018-10-18T13:27:10.111Z,6.60
2018-10-18T13:29:39.324Z,6.70
2018-10-18T13:32:08.509Z,8.13
2018-10-18T13:34:37.588Z,11.13
2018-10-18T13:37:07.467Z,7.90
2018-10-18T13:39:37.170Z,8.27
2018-10-18T13:42:07.365Z,6.67
2018-10-18T13:44:36.870Z,7.93
2018-10-18T13:47:06.051Z,7.07
2018-10-18T13:49:35.222Z,6.97
2018-10-18T13:52:04.362Z,6.00
2018-10-18T13:54:33.594Z,4.83
2018-10-18T13:57:02.659Z,3.93
2018-10-18T13:59:43.245Z,5.93
2018-10-18T14:02:12.424Z,7.07
2018-10-18T14:04:41.400Z,6.50
2018-10-18T14:07:10.565Z,5.70
2018-10-18T14:09:39.823Z,6.23
2018-10-18T14:12:08.984Z,7.00
2018-10-18T14:14:38.216Z,6.13
2018-10-18T14:17:07.840Z,7.87
2018-10-18T14:19:37.462Z,6.87
2018-10-18T14:22:07.103Z,6.10
2018-10-18T14:24:36.885Z,8.20
2018-10-18T14:27:06.428Z,5.50
2018-10-18T14:29:35.618Z,8.97
2018-10-18T14:32:04.861Z,7.37
2018-10-18T14:34:33.887Z,6.13
2018-10-18T14:37:06.265Z,6.93
2018-10-18T14:39:36.223Z,5.53
2018-10-18T14:42:05.966Z,4.70
2018-10-18T14:44:36.253Z,4.73
2018-10-18T14:47:05.665Z,5.20
2018-10-18T14:49:34.761Z,4.80
2018-10-18T14:52:04.391Z,5.53
2018-10-18T14:54:33.809Z,5.47
2018-10-18T14:57:04.074Z,7.00
2018-10-18T14:59:33.826Z,5.60
2018-10-18T15:02:03.228Z,6.43
2018-10-18T15:04:32.345Z,5.00
2018-10-18T15:07:01.442Z,5.20
2018-10-18T15:09:30.566Z,5.70
2018-10-18T15:11:59.779Z,7.57
2018-10-18T15:14:29.010Z,7.40
2018-10-18T15:16:58.315Z,7.17
2018-10-18T15:19:27.665Z,7.20
2018-10-18T15:21:57.186Z,5.73
2018-10-18T15:24:27.045Z,4.57
2018-10-18T15:27:05.855Z,6.03
2018-10-18T15:29:34.863Z,4.27
2018-10-18T15:32:04.035Z,4.23
2018-10-18T15:34:33.283Z,6.43
2018-10-18T15:37:02.339Z,5.27
2018-10-18T15:39:31.612Z,6.40
2018-10-18T15:42:02.094Z,4.50
2018-10-18T15:44:31.636Z,4.60
2018-10-18T15:47:01.388Z,6.43
2018-10-18T15:49:30.591Z,5.97
2018-10-18T15:51:59.982Z,5.70
2018-10-18T15:54:29.109Z,6.97
2018-10-18T15:59:26.919Z,4.55
2018-10-18T16:01:56.031Z,5.80
2018-10-18T16:06:53.387Z,5.83
2018-10-18T16:19:15.551Z,6.77
2018-10-18T16:21:44.954Z,5.40
2018-10-18T16:24:14.097Z,6.10
2018-10-18T16:26:43.150Z,6.40
2018-10-18T16:29:12.527Z,6.87
2018-10-18T16:31:41.575Z,5.73
2018-10-18T16:34:10.774Z,7.27
2018-10-18T16:36:40.698Z,4.73
2018-10-18T16:39:12.152Z,6.93
2018-10-18T16:41:42.137Z,6.70
2018-10-18T16:44:11.420Z,5.40
2018-10-18T16:46:40.520Z,5.60
2018-10-18T16:49:09.642Z,4.90
2018-10-18T16:51:39.206Z,7.80
2018-10-18T16:54:09.149Z,7.03
2018-10-18T16:56:39.094Z,7.13
2018-10-18T16:59:09.044Z,6.27
2018-10-18T17:01:38.786Z,7.10
2018-10-18T17:04:07.941Z,7.37
2018-10-18T17:06:37.012Z,5.80
2018-10-18T17:21:29.074Z,5.63
2018-10-18T17:23:58.389Z,7.07
2018-10-18T17:26:27.481Z,6.30
2018-10-18T17:28:56.599Z,6.60
2018-10-18T17:31:25.671Z,7.40
2018-10-18T17:33:54.915Z,6.47
2018-10-18T17:36:24.135Z,8.00
2018-10-18T17:38:53.459Z,5.55
2018-10-18T17:41:22.760Z,5.60
2018-10-18T17:43:52.436Z,5.63
2018-10-18T17:46:22.220Z,6.13
2018-10-18T17:48:51.565Z,8.40
2018-10-18T17:51:21.068Z,5.90
2018-10-18T17:53:50.272Z,6.70
2018-10-18T17:56:19.859Z,7.80
2018-10-18T17:58:49.010Z,6.10
2018-10-18T18:01:19.102Z,7.17
2018-10-18T18:03:49.482Z,6.93
2018-10-18T18:06:19.459Z,10.50
2018-10-18T18:08:48.852Z,7.70
2018-10-18T18:11:18.322Z,7.73
2018-10-18T18:13:47.621Z,9.27
2018-10-18T18:16:16.856Z,7.50
2018-10-18T18:18:45.978Z,6.67
2018-10-18T18:21:15.280Z,6.90
2018-10-18T18:23:45.166Z,8.20
2018-10-18T18:26:16.031Z,7.10
2018-10-18T18:28:45.328Z,8.70
2018-10-18T18:31:14.569Z,8.53
2018-10-18T18:33:43.830Z,9.70
2018-10-18T18:36:13.187Z,9.03
2018-10-18T18:38:42.412Z,10.20
2018-10-18T18:41:11.912Z,7.40
2018-10-18T18:43:43.102Z,9.40
2018-10-18T18:46:12.864Z,9.37
2018-10-18T18:48:42.409Z,8.37
2018-10-18T18:51:12.437Z,9.67
2018-10-18T18:53:41.846Z,9.53
2018-10-18T18:56:11.311Z,10.27
2018-10-18T18:58:41.156Z,9.70
2018-10-18T19:01:10.880Z,9.60
2018-10-18T19:03:41.285Z,10.93
2018-10-18T19:06:11.271Z,12.93
2018-10-18T19:08:40.964Z,12.27
2018-10-18T19:11:10.139Z,10.43
2018-10-18T19:13:40.538Z,12.93
2018-10-18T19:16:11.388Z,10.73
2018-10-18T19:18:41.174Z,9.50
2018-10-18T19:21:10.911Z,10.70
2018-10-18T19:23:40.378Z,11.30
2018-10-18T19:26:10.514Z,8.90
2018-10-18T19:28:39.744Z,9.83
2018-10-18T19:31:10.384Z,10.50
2018-10-18T19:33:40.371Z,9.77
2018-10-18T19:36:11.539Z,8.97
2018-10-18T19:38:40.730Z,9.60
2018-10-18T19:41:09.927Z,9.40
2018-10-18T19:43:39.231Z,10.23
2018-10-18T19:46:08.630Z,10.87
2018-10-18T19:48:37.930Z,12.00
2018-10-18T19:51:08.740Z,11.50
2018-10-18T19:53:38.849Z,10.67
2018-10-18T19:56:08.193Z,9.77
2018-10-18T19:58:37.634Z,8.85
2018-10-18T20:01:06.762Z,8.90
2018-10-18T20:03:35.889Z,12.33
2018-10-18T20:06:05.345Z,12.80
2018-10-18T20:08:34.587Z,12.43
2018-10-18T20:11:04.542Z,11.57
2018-10-18T20:13:35.098Z,10.30
2018-10-18T20:16:04.891Z,8.93
2018-10-18T20:18:34.679Z,8.77
2018-10-18T20:21:03.730Z,9.43
2018-10-18T20:23:32.798Z,9.30
2018-10-18T20:26:02.338Z,9.17
2018-10-18T20:28:31.171Z,8.87
2018-10-18T20:31:02.687Z,9.80
2018-10-18T20:33:34.579Z,7.23
2018-10-18T20:36:03.850Z,10.40
2018-10-18T20:38:33.072Z,8.37
2018-10-18T20:41:02.507Z,10.63
